createdAt,value
2017-12-31T00:00:56.180Z,97014.09
2017-12-31T00:01:59.347Z,97020.04
2017-12-31T00:03:02.644Z,97024.17
2017-12-31T00:04:05.760Z,97023.20
2017-12-31T00:05:09.055Z,97032.19
2017-12-31T00:06:12.912Z,97029.06
2017-12-31T00:07:16.359Z,97030.95
2017-12-31T00:08:19.451Z,97027.86
2017-12-31T00:09:23.288Z,97020.95
2017-12-31T00:10:26.354Z,97020.53
2017-12-31T00:11:29.531Z,97024.91
2017-12-31T00:12:32.650Z,97013.87
2017-12-31T00:13:35.759Z,97024.48
2017-12-31T00:14:38.888Z,97028.13
2017-12-31T00:15:42.058Z,97026.75
2017-12-31T00:16:45.134Z,97004.11
2017-12-31T00:17:48.228Z,97024.66
2017-12-31T00:18:51.646Z,97015.50
2017-12-31T00:19:54.693Z,97023.42
2017-12-31T00:20:57.777Z,97019.42
2017-12-31T00:22:00.905Z,97023.39
2017-12-31T00:23:03.958Z,97030.23
2017-12-31T00:24:07.131Z,97018.38
2017-12-31T00:25:10.726Z,97035.08
2017-12-31T00:26:13.797Z,97020.98
2017-12-31T00:27:17.026Z,97013.59
2017-12-31T00:28:20.104Z,97031.88
2017-12-31T00:29:23.177Z,97028.80
2017-12-31T00:30:26.343Z,97033.73
2017-12-31T00:31:29.921Z,97036.83
2017-12-31T00:32:33.048Z,97035.05
2017-12-31T00:33:36.183Z,97027.69
2017-12-31T00:34:39.227Z,97033.89
2017-12-31T00:35:42.380Z,97029.30
2017-12-31T00:36:45.370Z,97029.81
2017-12-31T00:37:48.702Z,97035.55
2017-12-31T00:38:51.735Z,97038.11
2017-12-31T00:39:54.825Z,97030.48
2017-12-31T00:40:57.904Z,97031.72
2017-12-31T00:42:01.259Z,97027.08
2017-12-31T00:43:04.328Z,97028.60
2017-12-31T00:44:07.969Z,97029.63
2017-12-31T00:45:11.074Z,97030.52
2017-12-31T00:46:14.248Z,97032.14
2017-12-31T00:47:17.373Z,97033.59
2017-12-31T00:48:20.422Z,97033.48
2017-12-31T00:49:23.425Z,97037.25
2017-12-31T00:50:26.866Z,97033.78
2017-12-31T00:51:29.821Z,97034.48
2017-12-31T00:52:32.853Z,97036.78
2017-12-31T00:53:35.891Z,97036.27
2017-12-31T00:54:38.871Z,97036.46
2017-12-31T00:55:41.900Z,97036.30
2017-12-31T00:56:46.309Z,97038.14
2017-12-31T00:57:49.310Z,97043.55
2017-12-31T00:58:52.406Z,97041.66
2017-12-31T00:59:55.544Z,97042.84
2017-12-31T01:00:58.540Z,97038.91
2017-12-31T01:02:01.628Z,97035.06
2017-12-31T01:03:05.130Z,97041.51
2017-12-31T01:04:09.939Z,97034.56
2017-12-31T01:05:13.033Z,97041.67
2017-12-31T01:06:16.156Z,97044.72
2017-12-31T01:07:19.326Z,97034.75
2017-12-31T01:08:22.446Z,97035.77
2017-12-31T01:09:25.934Z,97035.29
2017-12-31T01:10:29.021Z,97036.05
2017-12-31T01:11:32.131Z,97034.46
2017-12-31T01:12:35.244Z,97037.83
2017-12-31T01:13:38.417Z,97027.13
2017-12-31T01:14:41.635Z,97030.15
2017-12-31T01:15:46.022Z,97036.75
2017-12-31T01:16:49.156Z,97047.88
2017-12-31T01:17:52.285Z,97035.95
2017-12-31T01:18:55.374Z,97045.70
2017-12-31T01:19:58.435Z,97040.82
2017-12-31T01:21:01.568Z,97057.77
2017-12-31T01:22:05.014Z,97050.25
2017-12-31T01:23:08.061Z,97054.13
2017-12-31T01:24:11.282Z,97049.17
2017-12-31T01:25:14.386Z,97055.41
2017-12-31T01:26:17.594Z,97051.84
2017-12-31T01:27:20.666Z,97041.73
2017-12-31T01:28:24.162Z,97044.09
2017-12-31T01:29:27.238Z,97041.48
2017-12-31T01:30:30.371Z,97043.86
2017-12-31T01:31:33.435Z,97039.54
2017-12-31T01:32:36.513Z,97045.45
2017-12-31T01:33:39.650Z,97036.08
2017-12-31T01:34:43.296Z,97046.34
2017-12-31T01:35:46.459Z,97043.04
2017-12-31T01:36:49.496Z,97043.55
2017-12-31T01:37:52.505Z,97046.63
2017-12-31T01:38:55.560Z,97040.02
2017-12-31T01:39:58.589Z,97039.98
2017-12-31T01:41:02.069Z,97043.58
2017-12-31T01:42:05.106Z,97040.11
2017-12-31T01:43:08.149Z,97042.12
2017-12-31T01:44:11.144Z,97046.85
2017-12-31T01:45:14.259Z,97037.58
2017-12-31T01:46:17.334Z,97046.77
2017-12-31T01:47:20.747Z,97051.69
2017-12-31T01:48:23.865Z,97044.09
2017-12-31T01:49:26.963Z,97040.23
2017-12-31T01:50:31.091Z,97045.95
2017-12-31T01:51:34.171Z,97037.35
2017-12-31T01:52:37.171Z,97039.09
2017-12-31T01:53:40.557Z,97039.70
2017-12-31T01:54:43.579Z,97043.99
2017-12-31T01:55:46.606Z,97044.72
2017-12-31T01:56:49.635Z,97046.31
2017-12-31T01:57:52.661Z,97048.05
2017-12-31T01:58:55.667Z,97042.34
2017-12-31T01:59:58.681Z,97043.90
2017-12-31T02:01:01.689Z,97045.06
2017-12-31T02:02:04.728Z,97043.13
2017-12-31T02:03:07.827Z,97049.74
2017-12-31T02:04:10.885Z,97055.62
2017-12-31T02:05:13.953Z,97046.53
2017-12-31T02:06:17.422Z,97047.88
2017-12-31T02:07:20.505Z,97044.26
2017-12-31T02:08:23.604Z,97032.17
2017-12-31T02:09:26.657Z,97048.84
2017-12-31T02:10:29.755Z,97043.82
2017-12-31T02:11:32.921Z,97049.04
2017-12-31T02:12:36.497Z,97038.91
2017-12-31T02:13:40.158Z,97030.06
2017-12-31T02:14:43.226Z,97038.90
2017-12-31T02:15:46.391Z,97039.22
2017-12-31T02:16:49.435Z,97038.31
2017-12-31T02:17:52.478Z,97039.00
2017-12-31T02:18:56.463Z,97038.94
2017-12-31T02:19:59.542Z,97035.34
2017-12-31T02:21:02.611Z,97035.28
2017-12-31T02:22:05.707Z,97050.06
2017-12-31T02:23:08.806Z,97027.21
2017-12-31T02:24:11.864Z,97035.34
2017-12-31T02:25:15.949Z,97032.80
2017-12-31T02:26:19.070Z,97019.50
2017-12-31T02:27:22.082Z,97027.48
2017-12-31T02:28:25.151Z,97024.68
2017-12-31T02:29:28.273Z,97037.55
2017-12-31T02:30:31.335Z,97037.08
2017-12-31T02:31:34.740Z,97028.37
2017-12-31T02:32:37.823Z,97035.91
2017-12-31T02:33:41.142Z,97040.64
2017-12-31T02:34:44.213Z,97047.67
2017-12-31T02:35:47.309Z,97041.97
2017-12-31T02:36:50.373Z,97035.55
2017-12-31T02:37:53.800Z,97029.30
2017-12-31T02:38:57.084Z,97035.18
2017-12-31T02:40:00.168Z,97029.08
2017-12-31T02:41:03.276Z,97030.38
2017-12-31T02:42:06.359Z,97023.34
2017-12-31T02:43:09.484Z,97024.38
2017-12-31T02:44:12.676Z,97032.66
2017-12-31T02:45:15.700Z,97030.06
2017-12-31T02:46:19.254Z,97024.59
2017-12-31T02:47:22.269Z,97018.27
2017-12-31T02:48:25.638Z,97025.42
2017-12-31T02:49:28.733Z,97016.73
2017-12-31T02:50:31.754Z,97020.00
2017-12-31T02:51:35.688Z,97021.28
2017-12-31T02:52:38.785Z,97024.73
2017-12-31T02:53:41.877Z,97018.75
2017-12-31T02:54:45.280Z,97021.78
2017-12-31T02:55:48.266Z,97021.22
2017-12-31T02:56:51.214Z,97018.00
2017-12-31T02:57:54.183Z,97021.02
2017-12-31T02:58:57.123Z,97011.61
2017-12-31T03:00:00.187Z,97013.16
2017-12-31T03:01:03.545Z,97008.95
2017-12-31T03:02:07.542Z,97005.53
2017-12-31T03:03:10.619Z,97014.47
2017-12-31T03:04:13.727Z,97009.60
2017-12-31T03:05:16.822Z,97006.95
2017-12-31T03:06:20.910Z,97006.29
2017-12-31T03:07:24.350Z,97000.94
2017-12-31T03:08:27.473Z,96993.02
2017-12-31T03:09:30.565Z,96993.30
2017-12-31T03:10:33.635Z,96991.22
2017-12-31T03:11:36.649Z,96992.37
2017-12-31T03:12:39.777Z,96991.93
2017-12-31T03:13:43.207Z,96993.69
2017-12-31T03:14:46.210Z,96994.67
2017-12-31T03:15:49.307Z,96986.37
2017-12-31T03:16:52.352Z,96986.48
2017-12-31T03:17:55.406Z,96991.19
2017-12-31T03:18:58.530Z,96988.67
2017-12-31T03:20:02.045Z,96979.56
2017-12-31T03:21:05.211Z,96982.56
2017-12-31T03:22:09.234Z,96978.86
2017-12-31T03:23:12.275Z,96980.70
2017-12-31T03:24:15.337Z,96986.33
2017-12-31T03:25:18.485Z,96978.45
2017-12-31T03:26:21.987Z,96981.41
2017-12-31T03:27:25.036Z,96981.29
2017-12-31T03:28:28.092Z,96970.16
2017-12-31T03:29:32.314Z,96968.15
2017-12-31T03:30:36.053Z,96971.64
2017-12-31T03:31:39.125Z,96972.02
2017-12-31T03:32:42.616Z,96971.86
2017-12-31T03:33:45.704Z,96968.05
2017-12-31T03:34:48.751Z,96969.73
2017-12-31T03:35:51.801Z,96974.00
2017-12-31T03:36:54.876Z,96978.35
2017-12-31T03:37:57.944Z,96972.14
2017-12-31T03:39:01.394Z,96968.92
2017-12-31T03:40:04.402Z,96963.47
2017-12-31T03:41:07.415Z,96958.59
2017-12-31T03:42:10.441Z,96954.41
2017-12-31T03:43:13.505Z,96959.58
2017-12-31T03:44:17.197Z,96960.52
2017-12-31T03:45:20.691Z,96958.22
2017-12-31T03:46:23.802Z,96962.48
2017-12-31T03:47:26.864Z,96959.64
2017-12-31T03:48:30.894Z,96961.39
2017-12-31T03:49:33.943Z,96954.80
2017-12-31T03:50:37.002Z,96950.31
2017-12-31T03:51:40.491Z,96951.63
2017-12-31T03:52:45.620Z,96952.77
2017-12-31T03:53:48.585Z,96943.56
2017-12-31T03:54:52.311Z,96952.06
2017-12-31T03:55:55.280Z,96949.98
2017-12-31T03:56:58.223Z,96950.77
2017-12-31T03:58:02.576Z,96949.72
2017-12-31T03:59:05.522Z,96952.78
2017-12-31T04:00:08.470Z,96953.16
2017-12-31T04:01:11.455Z,96952.05
2017-12-31T04:02:14.447Z,96960.09
2017-12-31T04:03:17.405Z,96950.44
2017-12-31T04:04:20.841Z,96955.94
2017-12-31T04:05:23.859Z,96946.86
2017-12-31T04:06:26.806Z,96947.98
2017-12-31T04:07:29.796Z,96947.17
2017-12-31T04:08:32.802Z,96949.74
2017-12-31T04:09:35.890Z,96952.95
2017-12-31T04:10:39.451Z,96955.14
2017-12-31T04:11:42.474Z,96954.98
2017-12-31T04:12:45.553Z,96945.78
2017-12-31T04:13:48.622Z,96954.89
2017-12-31T04:14:51.721Z,96943.76
2017-12-31T04:15:54.783Z,96947.50
2017-12-31T04:16:58.276Z,96943.73
2017-12-31T04:18:01.396Z,96939.55
2017-12-31T04:19:04.726Z,96936.55
2017-12-31T04:20:07.786Z,96940.27
2017-12-31T04:21:10.844Z,96938.11
2017-12-31T04:22:13.930Z,96937.86
2017-12-31T04:23:16.961Z,96934.71
2017-12-31T04:24:20.041Z,96942.49
2017-12-31T04:25:23.102Z,96935.80
2017-12-31T04:26:26.244Z,96936.96
2017-12-31T04:27:29.309Z,96941.73
2017-12-31T04:28:32.372Z,96931.81
2017-12-31T04:29:35.470Z,96949.48
2017-12-31T04:30:38.561Z,96947.73
2017-12-31T04:31:41.638Z,96930.94
2017-12-31T04:32:44.816Z,96933.30
2017-12-31T04:33:48.368Z,96939.25
2017-12-31T04:34:51.428Z,96937.95
2017-12-31T04:35:54.541Z,96938.42
2017-12-31T04:36:58.018Z,96937.63
2017-12-31T04:38:01.118Z,96944.84
2017-12-31T04:39:04.270Z,96939.30
2017-12-31T04:40:07.683Z,96949.93
2017-12-31T04:41:10.801Z,96933.64
2017-12-31T04:42:14.067Z,96928.55
2017-12-31T04:43:18.036Z,96937.16
2017-12-31T04:44:21.107Z,96941.97
2017-12-31T04:45:24.150Z,96925.20
2017-12-31T04:46:33.976Z,96941.55
2017-12-31T04:47:37.418Z,96942.27
2017-12-31T04:48:40.475Z,96949.48
2017-12-31T04:49:43.533Z,96949.20
2017-12-31T04:50:46.640Z,96942.94
2017-12-31T04:51:50.483Z,96965.02
2017-12-31T04:52:54.039Z,96921.13
2017-12-31T04:53:57.106Z,96939.69
2017-12-31T04:55:00.151Z,96914.17
2017-12-31T04:56:03.305Z,96934.48
2017-12-31T04:57:07.658Z,96939.20
2017-12-31T04:58:10.748Z,96938.78
2017-12-31T04:59:14.117Z,96945.44
2017-12-31T05:00:17.218Z,96919.13
2017-12-31T05:01:20.314Z,96956.33
2017-12-31T05:02:23.375Z,96945.33
2017-12-31T05:03:26.392Z,96913.48
2017-12-31T05:04:29.362Z,96961.88
2017-12-31T05:05:32.674Z,96941.93
2017-12-31T05:06:35.672Z,96943.07
2017-12-31T05:07:38.621Z,96954.02
2017-12-31T05:08:41.575Z,96940.86
2017-12-31T05:09:44.532Z,96935.61
2017-12-31T05:10:47.584Z,96971.38
2017-12-31T05:11:51.078Z,96962.55
2017-12-31T05:12:54.128Z,96962.20
2017-12-31T05:13:57.187Z,96944.66
2017-12-31T05:15:00.294Z,96934.67
2017-12-31T05:16:03.369Z,96947.80
2017-12-31T05:17:06.442Z,96938.97
2017-12-31T05:18:09.932Z,96960.87
2017-12-31T05:19:12.984Z,96965.14
2017-12-31T05:20:16.105Z,96953.53
2017-12-31T05:21:19.222Z,96916.90
2017-12-31T05:22:22.295Z,96965.75
2017-12-31T05:23:25.381Z,96961.05
2017-12-31T05:24:28.871Z,96944.75
2017-12-31T05:25:31.915Z,96945.06
2017-12-31T05:26:35.025Z,96936.77
2017-12-31T05:27:38.121Z,96942.17
2017-12-31T05:28:41.074Z,96942.95
2017-12-31T05:29:44.044Z,96958.13
2017-12-31T05:30:47.566Z,96954.86
2017-12-31T05:31:50.563Z,96936.77
2017-12-31T05:32:53.527Z,96964.45
2017-12-31T05:33:56.559Z,96965.46
2017-12-31T05:34:59.559Z,96958.28
2017-12-31T05:36:02.603Z,96940.11
2017-12-31T05:37:06.177Z,96979.48
2017-12-31T05:38:09.595Z,96922.02
2017-12-31T05:39:12.634Z,96963.27
2017-12-31T05:40:15.719Z,96947.54
2017-12-31T05:41:18.807Z,96958.58
2017-12-31T05:42:21.865Z,96971.64
2017-12-31T05:43:25.262Z,96963.99
2017-12-31T05:44:28.893Z,96959.23
2017-12-31T05:45:31.982Z,96950.03
2017-12-31T05:46:35.095Z,96953.19
2017-12-31T05:47:39.360Z,96980.66
2017-12-31T05:48:42.394Z,96964.72
2017-12-31T05:49:45.947Z,96970.54
2017-12-31T05:50:48.983Z,96959.31
2017-12-31T05:51:52.077Z,96959.95
2017-12-31T05:52:55.150Z,96961.34
2017-12-31T05:53:58.319Z,96954.70
2017-12-31T05:55:01.453Z,96944.77
2017-12-31T05:56:04.873Z,96961.37
2017-12-31T05:57:08.026Z,96990.45
2017-12-31T05:58:11.040Z,96970.65
2017-12-31T05:59:14.180Z,96972.38
2017-12-31T06:00:17.209Z,96945.59
2017-12-31T06:01:20.351Z,96960.53
2017-12-31T06:02:23.677Z,96960.27
2017-12-31T06:03:27.154Z,96965.52
2017-12-31T06:04:30.115Z,96964.26
2017-12-31T06:05:33.156Z,96994.11
2017-12-31T06:06:36.243Z,96984.28
2017-12-31T06:07:39.365Z,96966.59
2017-12-31T06:08:42.808Z,96974.19
2017-12-31T06:09:45.789Z,97009.23
2017-12-31T06:10:48.781Z,96977.02
2017-12-31T06:11:51.707Z,96998.73
2017-12-31T06:12:54.727Z,96986.89
2017-12-31T06:13:57.740Z,96985.74
2017-12-31T06:15:01.160Z,96977.61
2017-12-31T06:16:04.259Z,96980.27
2017-12-31T06:17:07.323Z,96966.36
2017-12-31T06:18:10.348Z,96966.59
2017-12-31T06:19:14.390Z,96978.22
2017-12-31T06:20:17.383Z,96978.52
2017-12-31T06:21:20.793Z,96976.45
2017-12-31T06:22:23.832Z,96971.00
2017-12-31T06:23:26.931Z,96979.88
2017-12-31T06:24:29.993Z,96983.69
2017-12-31T06:25:32.999Z,96985.34
2017-12-31T06:26:36.033Z,96973.41
2017-12-31T06:27:39.484Z,96984.13
2017-12-31T06:28:42.470Z,96979.93
2017-12-31T06:29:45.540Z,96968.50
2017-12-31T06:30:48.582Z,96980.70
2017-12-31T06:31:52.055Z,96982.01
2017-12-31T06:32:55.182Z,96982.44
2017-12-31T06:33:58.768Z,96989.72
2017-12-31T06:35:01.811Z,96980.94
2017-12-31T06:36:04.848Z,96992.30
2017-12-31T06:37:07.944Z,96986.77
2017-12-31T06:38:10.982Z,96989.53
2017-12-31T06:39:14.040Z,97002.72
2017-12-31T06:40:17.623Z,96990.98
2017-12-31T06:41:20.678Z,97007.09
2017-12-31T06:42:23.755Z,96994.15
2017-12-31T06:43:26.818Z,96995.67
2017-12-31T06:44:29.955Z,97003.81
2017-12-31T06:45:33.021Z,97003.28
2017-12-31T06:46:36.474Z,97008.38
2017-12-31T06:47:39.535Z,96991.44
2017-12-31T06:48:42.581Z,96990.59
2017-12-31T06:49:45.752Z,97001.99
2017-12-31T06:50:48.877Z,96995.67
2017-12-31T06:51:51.945Z,96996.61
2017-12-31T06:52:55.353Z,96993.52
2017-12-31T06:53:58.424Z,96997.98
2017-12-31T06:55:01.524Z,97001.77
2017-12-31T06:56:04.564Z,97010.14
2017-12-31T06:57:07.656Z,97005.35
2017-12-31T06:58:10.750Z,97010.58
2017-12-31T06:59:14.667Z,97008.13
2017-12-31T07:00:17.963Z,96994.24
2017-12-31T07:01:21.050Z,97005.01
2017-12-31T07:02:24.105Z,97006.19
2017-12-31T07:03:27.186Z,97009.77
2017-12-31T07:04:30.818Z,97004.73
2017-12-31T07:05:33.946Z,97006.98
2017-12-31T07:06:37.012Z,97012.39
2017-12-31T07:07:41.770Z,97011.88
2017-12-31T07:08:44.848Z,97018.02
2017-12-31T07:09:47.908Z,97018.45
2017-12-31T07:10:51.518Z,97027.30
2017-12-31T07:11:54.605Z,97011.19
2017-12-31T07:12:57.644Z,97018.80
2017-12-31T07:14:00.775Z,97025.34
2017-12-31T07:15:03.888Z,97019.78
2017-12-31T07:16:06.961Z,97018.93
2017-12-31T07:17:10.454Z,97038.64
2017-12-31T07:18:13.507Z,97029.73
2017-12-31T07:19:16.561Z,97012.56
2017-12-31T07:20:19.622Z,97016.27
2017-12-31T07:21:22.709Z,97024.88
2017-12-31T07:22:25.786Z,97029.36
2017-12-31T07:23:29.282Z,97026.39
2017-12-31T07:24:32.422Z,97027.77
2017-12-31T07:25:35.577Z,97026.16
2017-12-31T07:26:38.675Z,97031.00
2017-12-31T07:27:42.603Z,97032.17
2017-12-31T07:28:45.745Z,97018.42
2017-12-31T07:29:49.140Z,97024.18
2017-12-31T07:30:52.664Z,97027.92
2017-12-31T07:31:56.160Z,97020.07
2017-12-31T07:32:59.618Z,97025.09
2017-12-31T07:34:03.025Z,97018.50
2017-12-31T07:35:07.737Z,97021.84
2017-12-31T07:36:11.206Z,97019.77
2017-12-31T07:37:14.856Z,97035.30
2017-12-31T07:38:18.297Z,97033.52
2017-12-31T07:39:22.230Z,97018.75
2017-12-31T07:40:25.315Z,97025.02
2017-12-31T07:41:28.666Z,97021.14
2017-12-31T07:42:31.673Z,97019.62
2017-12-31T07:43:34.667Z,97030.27
2017-12-31T07:44:38.241Z,97020.30
2017-12-31T07:45:41.323Z,97018.72
2017-12-31T07:46:44.299Z,97021.59
2017-12-31T07:47:47.720Z,97021.75
2017-12-31T07:48:50.639Z,97018.85
2017-12-31T07:49:53.573Z,97014.69
2017-12-31T07:50:56.847Z,97011.56
2017-12-31T07:52:00.341Z,97012.23
2017-12-31T07:53:03.820Z,97013.61
2017-12-31T07:54:07.587Z,97017.56
2017-12-31T07:55:11.100Z,97015.88
2017-12-31T07:56:14.216Z,97019.92
2017-12-31T07:57:18.205Z,97024.72
2017-12-31T07:58:21.615Z,97021.56
2017-12-31T07:59:25.188Z,97017.45
2017-12-31T08:00:29.095Z,97013.45
2017-12-31T08:01:32.597Z,97001.94
2017-12-31T08:02:36.128Z,97023.13
2017-12-31T08:03:39.717Z,97012.70
2017-12-31T08:04:42.825Z,97014.48
2017-12-31T08:05:45.875Z,97016.58
2017-12-31T08:06:49.215Z,97019.77
2017-12-31T08:07:52.248Z,97022.52
2017-12-31T08:08:55.248Z,97005.08
2017-12-31T08:09:58.326Z,97004.63
2017-12-31T08:11:01.462Z,97005.92
2017-12-31T08:12:04.566Z,97013.73
2017-12-31T08:13:07.977Z,97013.08
2017-12-31T08:14:11.006Z,97005.35
2017-12-31T08:15:14.148Z,97009.23
2017-12-31T08:16:17.650Z,97009.27
2017-12-31T08:17:21.088Z,97006.23
2017-12-31T08:18:25.263Z,97002.65
2017-12-31T08:19:28.636Z,97017.18
2017-12-31T08:20:31.705Z,97024.41
2017-12-31T08:21:34.722Z,97017.64
2017-12-31T08:22:37.735Z,97024.34
2017-12-31T08:23:40.761Z,97023.64
2017-12-31T08:24:44.127Z,97024.26
2017-12-31T08:25:47.789Z,97033.10
2017-12-31T08:26:50.911Z,97032.55
2017-12-31T08:27:53.978Z,97025.77
2017-12-31T08:28:57.043Z,97024.50
2017-12-31T08:30:00.143Z,97035.67
2017-12-31T08:31:03.616Z,97037.05
2017-12-31T08:32:06.706Z,97049.59
2017-12-31T08:33:09.828Z,97044.11
2017-12-31T08:34:12.908Z,97042.22
2017-12-31T08:35:15.903Z,97047.21
2017-12-31T08:36:18.916Z,97040.70
2017-12-31T08:37:22.301Z,97043.59
2017-12-31T08:38:25.358Z,97045.19
2017-12-31T08:39:28.617Z,97035.67
2017-12-31T08:40:31.654Z,97044.50
2017-12-31T08:41:34.813Z,97045.96
2017-12-31T08:42:37.953Z,97039.38
2017-12-31T08:43:41.351Z,97048.43
2017-12-31T08:44:44.427Z,97037.34
2017-12-31T08:45:47.481Z,97045.56
2017-12-31T08:46:50.911Z,97040.09
2017-12-31T08:47:54.119Z,97050.64
2017-12-31T08:48:57.182Z,97040.39
2017-12-31T08:50:00.577Z,97048.97
2017-12-31T08:51:04.620Z,97046.73
2017-12-31T08:52:07.751Z,97045.31
2017-12-31T08:53:10.796Z,97059.70
2017-12-31T08:54:13.924Z,97045.54
2017-12-31T08:55:17.755Z,97052.27
2017-12-31T08:56:21.246Z,97052.01
2017-12-31T08:57:24.314Z,97043.74
2017-12-31T08:58:27.407Z,97044.56
2017-12-31T08:59:30.583Z,97048.61
2017-12-31T09:00:33.668Z,97053.86
2017-12-31T09:01:36.734Z,97051.94
2017-12-31T09:02:39.951Z,97048.08
2017-12-31T09:03:43.069Z,97048.12
2017-12-31T09:04:46.134Z,97054.62
2017-12-31T09:05:49.199Z,97053.00
2017-12-31T09:06:52.287Z,97045.84
2017-12-31T09:07:56.649Z,97050.64
2017-12-31T09:08:59.717Z,97052.72
2017-12-31T09:10:03.709Z,97048.38
2017-12-31T09:11:06.823Z,97053.86
2017-12-31T09:12:09.976Z,97054.23
2017-12-31T09:13:13.048Z,97062.00
2017-12-31T09:14:16.052Z,97058.09
2017-12-31T09:15:19.178Z,97046.70
2017-12-31T09:16:22.267Z,97053.17
2017-12-31T09:17:25.374Z,97061.53
2017-12-31T09:18:28.485Z,97056.06
2017-12-31T09:19:31.950Z,97034.06
2017-12-31T09:20:35.974Z,97057.05
2017-12-31T09:21:39.073Z,97053.56
2017-12-31T09:22:42.181Z,97046.78
2017-12-31T09:23:45.273Z,97064.73
2017-12-31T09:24:48.342Z,97038.13
2017-12-31T09:25:51.463Z,97044.05
2017-12-31T09:26:54.537Z,97050.20
2017-12-31T09:27:57.679Z,97042.52
2017-12-31T09:29:00.767Z,97049.14
2017-12-31T09:30:03.851Z,97056.83
2017-12-31T09:31:07.392Z,97047.53
2017-12-31T09:32:10.491Z,97061.16
2017-12-31T09:33:13.613Z,97043.43
2017-12-31T09:34:16.760Z,97041.67
2017-12-31T09:35:19.896Z,97053.02
2017-12-31T09:36:22.963Z,97035.67
2017-12-31T09:37:26.038Z,97038.19
2017-12-31T09:38:29.123Z,97021.00
2017-12-31T09:39:32.287Z,97037.88
2017-12-31T09:40:35.395Z,97036.73
2017-12-31T09:41:38.411Z,97030.95
2017-12-31T09:42:41.892Z,97038.11
2017-12-31T09:43:44.986Z,97034.30
2017-12-31T09:44:48.106Z,97042.90
2017-12-31T09:45:51.134Z,97035.98
2017-12-31T09:46:55.224Z,97036.50
2017-12-31T09:47:58.184Z,97028.13
2017-12-31T09:49:01.464Z,97028.15
2017-12-31T09:50:04.432Z,97024.33
2017-12-31T09:51:07.454Z,97019.20
2017-12-31T09:52:10.520Z,97027.38
2017-12-31T09:53:13.616Z,97026.84
2017-12-31T09:54:16.722Z,97015.50
2017-12-31T09:55:20.106Z,97033.78
2017-12-31T09:56:23.154Z,96993.95
2017-12-31T09:57:26.268Z,97021.00
2017-12-31T09:58:29.865Z,97015.83
2017-12-31T09:59:33.016Z,97038.34
2017-12-31T10:00:36.581Z,97013.66
2017-12-31T10:01:40.150Z,97018.41
2017-12-31T10:02:43.237Z,97005.12
2017-12-31T10:03:46.302Z,97013.64
2017-12-31T10:04:49.291Z,97000.48
2017-12-31T10:05:52.269Z,96997.91
2017-12-31T10:06:55.395Z,96997.75
2017-12-31T10:07:59.067Z,97003.83
2017-12-31T10:09:02.812Z,97008.38
2017-12-31T10:10:05.893Z,97011.43
2017-12-31T10:11:08.995Z,97010.36
2017-12-31T10:12:12.083Z,96998.06
2017-12-31T10:13:15.158Z,97011.13
2017-12-31T10:14:18.865Z,96985.98
2017-12-31T10:15:21.991Z,97002.83
2017-12-31T10:16:25.022Z,96996.63
2017-12-31T10:18:46.870Z,97004.66
2017-12-31T10:19:49.932Z,97009.16
2017-12-31T10:20:53.352Z,96986.56
2017-12-31T10:21:56.436Z,97000.78
2017-12-31T10:22:59.492Z,97003.45
2017-12-31T10:24:02.598Z,96988.75
2017-12-31T10:25:05.644Z,96990.02
2017-12-31T10:26:08.696Z,96982.48
2017-12-31T10:27:11.822Z,96979.28
2017-12-31T10:28:14.757Z,97000.34
2017-12-31T10:29:17.861Z,97003.69
2017-12-31T10:30:20.903Z,96988.70
2017-12-31T10:31:23.982Z,96995.55
2017-12-31T10:32:27.372Z,96995.30
2017-12-31T10:33:30.445Z,97008.75
2017-12-31T10:34:33.524Z,96977.52
2017-12-31T10:35:36.605Z,96997.50
2017-12-31T10:36:39.686Z,96991.20
2017-12-31T10:37:42.745Z,96987.19
2017-12-31T10:38:46.671Z,97019.94
2017-12-31T10:39:49.746Z,96993.58
2017-12-31T10:40:52.829Z,96988.69
2017-12-31T10:41:55.952Z,96984.45
2017-12-31T10:42:58.998Z,96992.78
2017-12-31T10:44:02.121Z,96989.75
2017-12-31T10:45:06.001Z,96990.27
2017-12-31T10:46:09.089Z,96984.05
2017-12-31T10:47:12.449Z,96983.06
2017-12-31T10:48:15.479Z,97008.00
2017-12-31T10:49:18.656Z,97005.49
2017-12-31T10:50:21.864Z,96956.80
2017-12-31T10:51:25.206Z,96965.58
2017-12-31T10:52:28.349Z,96965.88
2017-12-31T10:53:31.475Z,96974.11
2017-12-31T10:54:34.540Z,96974.23
2017-12-31T10:55:37.608Z,96962.53
2017-12-31T10:56:40.659Z,96950.39
2017-12-31T10:57:44.014Z,96986.52
2017-12-31T10:58:47.142Z,96958.67
2017-12-31T10:59:50.467Z,96971.23
2017-12-31T11:00:57.406Z,96977.31
2017-12-31T11:02:00.478Z,96968.37
2017-12-31T11:03:03.583Z,96971.76
2017-12-31T11:04:07.053Z,96988.42
2017-12-31T11:05:10.113Z,96976.94
2017-12-31T11:06:13.198Z,96970.14
2017-12-31T11:07:16.400Z,96981.02
2017-12-31T11:08:19.380Z,96973.39
2017-12-31T11:09:22.348Z,96969.23
2017-12-31T11:10:30.693Z,96968.69
2017-12-31T11:11:34.261Z,96968.91
2017-12-31T11:12:37.289Z,96969.77
2017-12-31T11:13:40.292Z,96947.33
2017-12-31T11:14:43.302Z,96958.54
2017-12-31T11:15:46.399Z,96948.22
2017-12-31T11:16:49.957Z,96952.11
2017-12-31T11:17:54.143Z,96953.06
2017-12-31T11:18:57.170Z,96949.02
2017-12-31T11:20:00.173Z,96949.56
2017-12-31T11:21:03.138Z,96948.41
2017-12-31T11:22:06.162Z,96958.97
2017-12-31T11:23:09.426Z,96946.07
2017-12-31T11:24:12.646Z,96907.52
2017-12-31T11:25:15.697Z,96958.23
2017-12-31T11:26:18.723Z,96957.63
2017-12-31T11:27:21.819Z,96930.07
2017-12-31T11:28:24.913Z,96955.04
2017-12-31T11:29:28.123Z,96946.02
2017-12-31T11:30:31.269Z,96953.16
2017-12-31T11:31:34.328Z,96948.67
2017-12-31T11:32:37.410Z,97002.46
2017-12-31T11:33:41.395Z,96944.55
2017-12-31T11:34:44.589Z,96901.67
2017-12-31T11:35:47.963Z,96956.59
2017-12-31T11:36:51.102Z,96956.65
2017-12-31T11:37:54.552Z,96950.77
2017-12-31T11:38:57.725Z,96954.05
2017-12-31T11:40:00.738Z,96971.30
2017-12-31T11:41:03.798Z,96925.95
2017-12-31T11:42:06.780Z,96922.84
2017-12-31T11:43:09.867Z,96940.94
2017-12-31T11:44:12.998Z,96929.25
2017-12-31T11:45:16.153Z,96932.41
2017-12-31T11:46:19.254Z,96947.73
2017-12-31T11:47:22.623Z,96938.85
2017-12-31T11:48:25.706Z,96938.55
2017-12-31T11:49:28.765Z,96961.30
2017-12-31T11:50:31.897Z,96924.14
2017-12-31T11:51:34.958Z,96926.96
2017-12-31T11:52:38.014Z,96911.56
2017-12-31T11:53:41.420Z,96922.34
2017-12-31T11:54:44.509Z,96943.74
2017-12-31T11:55:47.552Z,96941.67
2017-12-31T11:56:50.607Z,96938.05
2017-12-31T11:57:54.260Z,96934.55
2017-12-31T11:58:57.373Z,96921.67
2017-12-31T12:00:00.916Z,96924.75
2017-12-31T12:01:04.003Z,96938.29
2017-12-31T12:02:07.056Z,96937.53
2017-12-31T12:03:10.108Z,96927.16
2017-12-31T12:04:13.228Z,96930.08
2017-12-31T12:05:16.318Z,96915.77
2017-12-31T12:06:19.646Z,96928.63
2017-12-31T12:07:22.655Z,96912.47
2017-12-31T12:08:25.735Z,96903.22
2017-12-31T12:09:28.871Z,96926.26
2017-12-31T12:10:31.932Z,96932.77
2017-12-31T12:11:35.059Z,96914.12
2017-12-31T12:12:38.442Z,96948.11
2017-12-31T12:13:41.514Z,96920.73
2017-12-31T12:14:44.601Z,96934.81
2017-12-31T12:15:47.722Z,96893.45
2017-12-31T12:16:50.840Z,96894.83
2017-12-31T12:17:54.435Z,96892.55
2017-12-31T12:18:58.038Z,96925.67
2017-12-31T12:20:01.193Z,96882.28
2017-12-31T12:21:04.270Z,96903.12
2017-12-31T12:22:07.285Z,96911.92
2017-12-31T12:23:10.313Z,96929.24
2017-12-31T12:24:13.612Z,96888.00